Time;durP1;ratioP1;P1;durP2;ratioP2;P2;SDS_P1;SDS_P2;PMS_P1;PMS_P2;Temp;Humidity;BMP_temperature;BMP_pressure;BME280_temperature;BME280_humidity;BME280_pressure;Samples;Min_cycle;Max_cycle;Signal;HPM_P1;HPM_P2
2022/11/16 00:01:13;;;;;;;0.70;0.70;;;;;;;9.56;100.00;99930.78;5052784;28;20199;-78
2022/11/16 00:03:42;;;;;;;0.50;0.50;;;;;;;9.60;100.00;99927.34;5018203;28;20231;-77
2022/11/16 00:06:10;;;;;;;0.87;0.87;;;;;;;9.62;100.00;99929.16;5052354;28;20214;-77
2022/11/16 00:08:39;;;;;;;0.80;0.80;;;;;;;9.50;100.00;99923.75;5052582;28;20275;-77
2022/11/16 00:11:09;;;;;;;0.70;0.70;;;;;;;9.46;100.00;99929.72;5052443;28;20199;-77
2022/11/16 00:13:37;;;;;;;0.90;0.90;;;;;;;9.30;100.00;99901.88;5052550;28;20207;-78
2022/11/16 00:16:05;;;;;;;0.70;0.70;;;;;;;9.25;100.00;99898.31;5051966;28;20230;-77
2022/11/16 00:18:32;;;;;;;0.60;0.60;;;;;;;9.38;100.00;99919.25;5053516;28;20203;-77
2022/11/16 00:21:03;;;;;;;9.67;1.97;;;;;;;9.41;100.00;99916.72;5052637;28;20195;-77
2022/11/16 00:23:30;;;;;;;0.83;0.83;;;;;;;9.31;100.00;99904.47;5052596;28;20595;-78
2022/11/16 00:26:02;;;;;;;0.53;0.53;;;;;;;9.08;100.00;99887.69;5052881;28;20199;-77
2022/11/16 00:28:29;;;;;;;0.70;0.70;;;;;;;9.15;100.00;99912.81;5051954;28;20199;-78
2022/11/16 00:30:59;;;;;;;0.70;0.70;;;;;;;9.21;100.00;99899.97;5052557;28;20218;-76
2022/11/16 00:33:25;;;;;;;0.80;0.80;;;;;;;9.04;100.00;99872.06;5052638;28;20226;-77
2022/11/16 00:35:52;;;;;;;0.70;0.70;;;;;;;9.11;100.00;99890.31;5051693;28;20671;-77
2022/11/16 00:38:21;;;;;;;0.60;0.60;;;;;;;8.89;100.00;99877.84;5052248;28;20203;-77
2022/11/16 00:40:48;;;;;;;0.80;0.80;;;;;;;8.95;100.00;99894.31;5051906;28;20625;-77
2022/11/16 00:43:15;;;;;;;0.70;0.70;;;;;;;8.89;100.00;99886.47;5051908;28;20667;-77
2022/11/16 00:45:42;;;;;;;2.20;1.43;;;;;;;8.87;100.00;99882.13;5051727;28;20581;-80
2022/11/16 00:48:09;;;;;;;0.73;0.73;;;;;;;8.87;100.00;99877.84;5051611;28;20660;-78
2022/11/16 00:50:36;;;;;;;0.70;0.70;;;;;;;8.91;100.00;99877.06;5047896;28;20695;-75
2022/11/16 00:53:03;;;;;;;0.73;0.73;;;;;;;8.80;100.00;99873.41;5051546;28;20195;-76
2022/11/16 00:55:32;;;;;;;0.60;0.60;;;;;;;8.89;100.00;99876.13;5032424;28;20219;-76
2022/11/16 00:57:58;;;;;;;0.50;0.50;;;;;;;8.98;100.00;99862.50;5051307;28;20204;-76
2022/11/16 01:00:25;;;;;;;0.60;0.60;;;;;;;8.74;100.00;99837.06;5051185;28;20219;-76
2022/11/16 01:02:53;;;;;;;0.70;0.70;;;;;;;8.88;100.00;99851.13;5051894;28;20245;-76
2022/11/16 01:05:20;;;;;;;0.70;0.70;;;;;;;9.04;100.00;99847.09;5032185;28;20203;-76
2022/11/16 01:07:47;;;;;;;1.10;1.10;;;;;;;8.98;100.00;99836.66;5052013;28;20202;-76
2022/11/16 01:10:17;;;;;;;1.53;1.50;;;;;;;9.13;100.00;99856.72;5051075;28;20199;-76
2022/11/16 01:12:44;;;;;;;1.33;1.20;;;;;;;9.11;100.00;99850.66;5033139;28;20663;-76
2022/11/16 01:15:12;;;;;;;0.70;0.70;;;;;;;9.17;100.00;99848.16;5051161;28;20262;-76
2022/11/16 01:17:40;;;;;;;0.70;0.70;;;;;;;9.12;100.00;99845.50;5051253;28;20204;-76
2022/11/16 01:20:10;;;;;;;0.80;0.80;;;;;;;8.94;100.00;99811.59;5051155;28;20203;-76
2022/11/16 01:22:39;;;;;;;0.80;0.80;;;;;;;9.04;100.00;99810.88;5051594;28;20278;-75
2022/11/16 01:25:06;;;;;;;0.73;0.73;;;;;;;9.14;100.00;99828.28;5050807;28;20666;-76
2022/11/16 01:27:33;;;;;;;0.70;0.70;;;;;;;9.18;100.00;99821.47;5051157;28;20204;-75
2022/11/16 01:30:01;;;;;;;0.60;0.60;;;;;;;8.97;100.00;99788.38;5012506;28;20211;-77
2022/11/16 01:32:28;;;;;;;0.60;0.60;;;;;;;8.65;100.00;99743.00;5045582;28;20199;-76
2022/11/16 01:34:55;;;;;;;0.70;0.70;;;;;;;9.10;100.00;99821.31;5050980;28;20234;-75
2022/11/16 01:37:22;;;;;;;0.70;0.70;;;;;;;9.14;100.00;99828.28;5051441;28;20203;-77
2022/11/16 01:39:49;;;;;;;0.70;0.70;;;;;;;9.06;100.00;99829.88;5051406;28;20595;-76
2022/11/16 01:42:18;;;;;;;0.70;0.70;;;;;;;9.00;100.00;99816.84;5051214;28;20636;-76
2022/11/16 01:45:06;;;;;;;1.07;1.07;;;;;;;8.89;100.00;99795.09;5050682;28;20286;-76
2022/11/16 01:47:33;;;;;;;0.83;0.83;;;;;;;9.01;100.00;99810.84;5050970;28;20591;-76
2022/11/16 01:50:06;;;;;;;0.60;0.60;;;;;;;8.97;100.00;99814.22;5051011;28;20199;-75
2022/11/16 01:52:35;;;;;;;0.60;0.60;;;;;;;8.89;100.00;99813.22;5051203;28;20559;-76
2022/11/16 01:55:02;;;;;;;1.13;1.13;;;;;;;8.99;100.00;99809.94;5050634;28;20215;-75
2022/11/16 01:57:33;;;;;;;0.80;0.80;;;;;;;8.87;100.00;99801.97;5050457;28;20207;-76
2022/11/16 02:00:02;;;;;;;0.40;0.40;;;;;;;8.88;100.00;99783.06;5049879;28;20204;-77
2022/11/16 02:02:30;;;;;;;0.57;0.57;;;;;;;8.82;100.00;99767.41;5050505;28;20237;-76
2022/11/16 02:04:58;;;;;;;0.70;0.70;;;;;;;8.43;100.00;99721.97;5050913;28;20195;-77
2022/11/16 02:09:52;;;;;;;0.70;0.70;;;;;;;8.96;100.00;99807.28;5050402;28;20199;-77
2022/11/16 02:10:39;;;;;;;0.70;0.70;;;;;;;9.02;100.00;99802.25;5039879;28;20676;-77
2022/11/16 02:13:17;;;;;;;0.70;0.70;;;;;;;9.04;100.00;99794.50;5050673;28;20205;-76
2022/11/16 02:15:47;;;;;;;0.80;0.80;;;;;;;8.88;100.00;99793.41;5050436;28;20216;-77
2022/11/16 02:18:30;;;;;;;0.60;0.60;;;;;;;8.84;100.00;99765.75;5050586;28;20200;-76
2022/11/16 02:21:08;;;;;;;0.60;0.60;;;;;;;9.04;100.00;99789.31;5051040;28;20207;-77
2022/11/16 02:24:22;;;;;;;0.47;0.47;;;;;;;9.13;100.00;99779.16;5050381;28;20192;-77
2022/11/16 02:27:27;;;;;;;0.70;0.70;;;;;;;9.18;100.00;99778.34;5050305;28;20313;-77
2022/11/16 02:29:56;;;;;;;1.03;1.00;;;;;;;9.12;100.00;99779.97;5049799;28;20198;-77
2022/11/16 02:32:29;;;;;;;0.70;0.70;;;;;;;9.08;100.00;99771.31;5049758;28;20999;-77
2022/11/16 02:35:01;;;;;;;0.90;0.90;;;;;;;9.04;100.00;99774.69;5031660;28;20739;-77
2022/11/16 02:37:33;;;;;;;0.60;0.60;;;;;;;9.08;100.00;99771.31;5049893;28;20860;-77
2022/11/16 02:40:03;;;;;;;0.60;0.60;;;;;;;9.03;100.00;99747.09;5050506;28;20196;-77
2022/11/16 02:42:34;;;;;;;0.70;0.70;;;;;;;9.12;100.00;99762.75;5050016;28;20261;-77
2022/11/16 02:45:05;;;;;;;0.60;0.60;;;;;;;9.08;100.00;99760.97;5050394;28;20632;-77
2022/11/16 02:47:34;;;;;;;0.50;0.50;;;;;;;8.92;100.00;99712.44;5049725;28;20234;-77
2022/11/16 02:50:05;;;;;;;0.90;0.90;;;;;;;9.29;100.00;99748.34;5049879;28;20191;-77
2022/11/16 02:52:31;;;;;;;0.70;0.70;;;;;;;9.32;100.00;99753.56;5050368;28;20199;-77
2022/11/16 02:54:58;;;;;;;0.60;0.60;;;;;;;9.40;100.00;99740.75;5050526;28;20227;-77
2022/11/16 02:57:50;;;;;;;1.10;1.10;;;;;;;9.48;100.00;99741.72;5050138;28;20211;-77
2022/11/16 03:00:33;;;;;;;0.60;0.60;;;;;;;9.40;100.00;99733.84;5052323;28;20650;-77
2022/11/16 03:03:10;;;;;;;0.70;0.70;;;;;;;9.32;100.00;99730.28;5053472;28;20234;-76
2022/11/16 03:05:42;;;;;;;0.60;0.60;;;;;;;9.32;100.00;99725.13;5034145;28;20208;-77
2022/11/16 03:08:18;;;;;;;0.60;0.60;;;;;;;9.13;100.00;99691.22;5050175;28;20199;-77
2022/11/16 03:13:36;;;;;;;0.60;0.60;;;;;;;9.20;100.00;99716.31;5053916;28;20215;-77
2022/11/16 03:16:09;;;;;;;0.80;0.80;;;;;;;9.25;100.00;99712.94;5053620;28;20230;-77
2022/11/16 03:18:39;;;;;;;0.60;0.60;;;;;;;9.21;100.00;99711.16;5053478;28;20306;-77
2022/11/16 03:21:13;;;;;;;0.70;0.70;;;;;;;9.12;100.00;99716.22;5053165;28;20690;-77
2022/11/16 03:23:40;;;;;;;0.50;0.50;;;;;;;8.99;100.00;99697.91;5050860;28;20200;-77
2022/11/16 03:26:09;;;;;;;0.80;0.80;;;;;;;9.07;100.00;99691.09;5053624;28;20195;-77
2022/11/16 03:28:42;;;;;;;0.93;0.90;;;;;;;9.17;100.00;99699.00;5018757;28;20203;-77
2022/11/16 03:31:14;;;;;;;0.57;0.57;;;;;;;9.23;100.00;99699.13;5035709;28;20290;-77
2022/11/16 03:33:45;;;;;;;0.80;0.80;;;;;;;9.29;100.00;99687.97;5053683;28;20195;-77
2022/11/16 03:36:17;;;;;;;0.80;0.80;;;;;;;9.17;100.00;99691.25;5053370;28;20224;-77
2022/11/16 03:38:49;;;;;;;4.47;1.27;;;;;;;9.19;100.00;99686.13;5053310;28;20230;-77
2022/11/16 03:41:18;;;;;;;0.60;0.60;;;;;;;9.09;100.00;99692.03;5053660;28;20211;-77
2022/11/16 03:43:47;;;;;;;0.80;0.80;;;;;;;8.96;100.00;99676.31;5053281;28;20200;-77
2022/11/16 03:46:16;;;;;;;0.60;0.60;;;;;;;9.07;100.00;99668.72;5052984;28;20260;-76
2022/11/16 03:48:43;;;;;;;0.60;0.60;;;;;;;9.00;100.00;99664.28;5052983;28;20652;-76
2022/11/16 03:51:11;;;;;;;0.80;0.80;;;;;;;8.86;100.00;99676.16;5053250;28;20218;-76
2022/11/16 03:53:38;;;;;;;0.70;0.70;;;;;;;8.96;100.00;99683.19;5052079;28;20202;-77
2022/11/16 03:56:05;;;;;;;0.67;0.67;;;;;;;9.06;100.00;99669.53;5052367;28;20223;-76
2022/11/16 03:58:32;;;;;;;0.60;0.60;;;;;;;9.12;100.00;99673.94;5052357;28;20203;-77
2022/11/16 04:00:58;;;;;;;0.80;0.80;;;;;;;9.08;100.00;99659.25;5052879;28;20219;-77
2022/11/16 04:03:27;;;;;;;0.70;0.70;;;;;;;9.06;100.00;99666.13;5052218;28;20639;-76
2022/11/16 04:25:19;;;;;;;0.70;0.70;;;;;;;9.20;100.00;99630.97;5052207;28;20596;-77
2022/11/16 04:37:47;;;;;;;0.70;0.70;;;;;;;9.06;100.00;99606.66;5052330;28;20198;-77
2022/11/16 04:38:49;;;;;;;0.70;0.70;;;;;;;9.24;100.00;99633.59;5022826;28;20198;-77
2022/11/16 04:43:57;;;;;;;0.70;0.70;;;;;;;9.22;100.00;99631.84;5052131;28;20195;-77
2022/11/16 04:49:08;;;;;;;0.50;0.50;;;;;;;9.26;100.00;99618.97;5051812;28;20361;-77
2022/11/16 04:51:36;;;;;;;0.70;0.70;;;;;;;9.40;100.00;99645.00;5052061;28;20208;-76
2022/11/16 04:54:03;;;;;;;0.50;0.50;;;;;;;9.42;100.00;99648.47;5052018;28;20633;-77
2022/11/16 04:56:30;;;;;;;0.70;0.70;;;;;;;9.36;100.00;99649.28;5051625;28;20694;-77
2022/11/16 04:58:57;;;;;;;1.00;1.00;;;;;;;9.41;100.00;99639.88;5051752;28;20199;-77
2022/11/16 05:02:06;;;;;;;0.70;0.70;;;;;;;9.35;100.00;99616.50;5052150;28;20214;-76
2022/11/16 05:04:11;;;;;;;1.33;1.33;;;;;;;9.20;100.00;99603.38;5012096;28;20212;-76
2022/11/16 05:06:39;;;;;;;0.50;0.50;;;;;;;9.44;100.00;99616.63;5020021;28;20207;-77
2022/11/16 05:09:06;;;;;;;0.60;0.60;;;;;;;9.36;100.00;99610.47;5031682;28;20208;-78
2022/11/16 05:11:33;;;;;;;0.63;0.63;;;;;;;9.26;100.00;99611.22;5031274;28;20207;-77
2022/11/16 05:14:00;;;;;;;0.60;0.60;;;;;;;9.20;100.00;99608.56;5031188;28;20586;-77
2022/11/16 05:16:27;;;;;;;0.60;0.60;;;;;;;9.26;100.00;99587.06;5030984;28;20273;-77
2022/11/16 05:21:34;;;;;;;0.70;0.70;;;;;;;9.26;100.00;99611.22;5031172;28;20195;-78
2022/11/16 05:26:47;;;;;;;1.07;1.07;;;;;;;9.21;100.00;99619.75;5017505;28;20218;-76
2022/11/16 05:29:14;;;;;;;0.70;0.70;;;;;;;9.12;100.00;99607.59;5031040;28;20273;-76
2022/11/16 05:31:40;;;;;;;0.60;0.60;;;;;;;9.13;100.00;99618.81;5031547;28;20200;-77
2022/11/16 05:34:08;;;;;;;0.70;0.70;;;;;;;9.04;100.00;99609.19;5031026;28;20208;-77
2022/11/16 05:36:35;;;;;;;1.23;1.23;;;;;;;8.91;100.00;99612.47;5031242;28;20232;-77
2022/11/16 05:39:03;;;;;;;0.53;0.53;;;;;;;8.82;100.00;99581.31;5031076;28;20204;-77
2022/11/16 05:41:30;;;;;;;0.60;0.60;;;;;;;8.94;100.00;99609.94;5031307;28;20670;-77
2022/11/16 05:43:57;;;;;;;0.83;0.83;;;;;;;8.80;100.00;99599.41;5031580;28;20200;-76
2022/11/16 05:46:25;;;;;;;0.70;0.70;;;;;;;8.85;100.00;99591.69;5031251;28;20199;-77
2022/11/16 05:48:52;;;;;;;1.93;1.30;;;;;;;8.93;100.00;99590.09;5031454;28;20283;-75
2022/11/16 05:51:18;;;;;;;0.67;0.67;;;;;;;9.09;100.00;99594.63;4996701;28;20238;-75
2022/11/16 05:53:45;;;;;;;0.70;0.70;;;;;;;9.20;100.00;99593.03;5027075;28;20204;-74
2022/11/16 05:56:14;;;;;;;0.70;0.70;;;;;;;9.21;100.00;99599.94;5030479;28;20226;-76
2022/11/16 05:58:41;;;;;;;0.80;0.80;;;;;;;9.19;100.00;99599.06;5030980;28;20200;-74
2022/11/16 06:01:08;;;;;;;1.00;1.00;;;;;;;9.08;100.00;99605.81;5031044;28;20215;-76
2022/11/16 06:03:36;;;;;;;1.03;1.03;;;;;;;9.17;100.00;99585.22;5044222;28;20219;-72
2022/11/16 06:06:03;;;;;;;0.63;0.63;;;;;;;9.22;100.00;99591.34;5043421;28;20246;-75
2022/11/16 06:08:30;;;;;;;0.70;0.70;;;;;;;8.96;100.00;99538.41;5051305;28;20203;-77
2022/11/16 06:11:01;;;;;;;1.50;1.50;;;;;;;9.14;100.00;99554.16;5050531;28;20207;-77
2022/11/16 06:13:30;;;;;;;0.50;0.50;;;;;;;9.27;100.00;99581.06;5050952;28;20200;-75
2022/11/16 06:15:57;;;;;;;0.90;0.90;;;;;;;8.81;100.00;99494.31;5050362;28;20238;-74
2022/11/16 06:18:24;;;;;;;0.50;0.50;;;;;;;9.15;100.00;99589.53;5050458;28;20214;-75
2022/11/16 06:20:51;;;;;;;0.90;0.90;;;;;;;9.25;100.00;99578.44;5042106;28;20216;-73
2022/11/16 06:23:18;;;;;;;0.60;0.60;;;;;;;9.19;100.00;99565.44;5045032;28;20207;-74
2022/11/16 06:25:45;;;;;;;0.70;0.70;;;;;;;9.33;100.00;99579.41;5049909;28;20688;-73
2022/11/16 06:28:12;;;;;;;0.70;0.70;;;;;;;9.46;100.00;99578.69;5050411;28;20267;-73
2022/11/16 06:30:40;;;;;;;0.70;0.70;;;;;;;9.41;100.00;99575.19;5050350;28;20199;-74
2022/11/16 06:33:07;;;;;;;0.80;0.80;;;;;;;9.24;100.00;99571.50;5050233;28;20221;-75
2022/11/16 06:35:34;;;;;;;6.60;1.23;;;;;;;9.05;100.00;99559.22;5052548;28;20211;-73
2022/11/16 06:38:00;;;;;;;1.63;1.53;;;;;;;9.14;100.00;99574.84;5026496;28;20216;-73
2022/11/16 06:40:27;;;;;;;0.57;0.57;;;;;;;9.29;100.00;99569.00;5042959;28;20215;-73
2022/11/16 06:42:56;;;;;;;0.70;0.70;;;;;;;9.05;100.00;99569.56;5048113;28;20682;-74
2022/11/16 06:45:22;;;;;;;0.73;0.73;;;;;;;9.05;100.00;99564.41;5046947;28;20212;-75
2022/11/16 06:47:51;;;;;;;0.80;0.80;;;;;;;9.12;100.00;99561.03;5052785;28;20215;-74
2022/11/16 06:50:18;;;;;;;0.80;0.80;;;;;;;9.13;100.00;99561.91;5044902;28;20203;-75
2022/11/16 06:52:46;;;;;;;0.73;0.73;;;;;;;9.19;100.00;99557.69;5052578;28;20199;-74
2022/11/16 06:55:13;;;;;;;0.80;0.80;;;;;;;9.14;100.00;99517.06;5027755;28;20637;-75
2022/11/16 06:57:40;;;;;;;1.97;1.93;;;;;;;9.30;100.00;99537.09;5060806;28;20753;-75
2022/11/16 07:00:08;;;;;;;0.80;0.80;;;;;;;9.46;100.00;99542.47;5050386;28;20317;-74
2022/11/16 07:02:36;;;;;;;1.63;1.53;;;;;;;9.52;100.00;99540.78;5055635;28;20236;-75
2022/11/16 07:05:06;;;;;;;0.77;0.77;;;;;;;9.66;100.00;99541.81;5053420;28;20199;-75
2022/11/16 07:07:33;;;;;;;0.60;0.60;;;;;;;9.53;100.00;99534.75;5056138;28;20203;-76
2022/11/16 07:10:00;;;;;;;0.60;0.60;;;;;;;9.25;100.00;99466.34;5052889;28;20211;-75
2022/11/16 07:12:27;;;;;;;0.77;0.77;;;;;;;9.67;100.00;99540.94;5050230;28;20204;-75
2022/11/16 07:14:53;;;;;;;0.70;0.70;;;;;;;9.85;100.00;99541.09;5051085;28;20687;-74
2022/11/16 07:17:20;;;;;;;0.70;0.70;;;;;;;9.95;100.00;99548.97;5055636;28;20239;-75
2022/11/16 07:19:47;;;;;;;2.00;2.00;;;;;;;9.73;100.00;99546.19;5051156;28;20685;-74
2022/11/16 07:22:15;;;;;;;1.20;1.20;;;;;;;9.61;100.00;99551.22;5022642;28;20678;-74
2022/11/16 07:24:42;;;;;;;0.50;0.50;;;;;;;9.45;100.00;99514.84;5044566;28;20200;-73
2022/11/16 07:27:09;;;;;;;0.70;0.70;;;;;;;9.82;100.00;99549.72;5048615;28;20210;-74
2022/11/16 07:29:35;;;;;;;0.60;0.60;;;;;;;9.83;100.00;99548.00;5052751;28;20203;-73
2022/11/16 07:32:02;;;;;;;1.03;1.03;;;;;;;9.89;100.00;99551.50;5050384;28;20203;-74
2022/11/16 07:42:14;;;;;;;0.53;0.53;;;;;;;10.15;100.00;99556.97;5049066;28;20191;-75
2022/11/16 07:45:32;;;;;;;0.60;0.60;;;;;;;10.01;100.00;99558.53;4942425;28;20208;-75
2022/11/16 07:49:21;;;;;;;0.60;0.60;;;;;;;10.39;100.00;99535.53;4899451;29;20208;-73
2022/11/16 11:48:13;;;;;;;0.70;0.70;;;;;;;12.35;100.00;99275.34;4768266;29;20202;-74
2022/11/16 11:50:47;;;;;;;1.55;1.15;;;;;;;12.63;100.00;99298.56;4871336;29;20252;-74
2022/11/16 11:53:29;;;;;;;0.60;0.60;;;;;;;12.55;100.00;99287.38;4882955;29;20208;-75
2022/11/16 11:55:58;;;;;;;0.80;0.80;;;;;;;12.62;100.00;99291.66;4919300;29;20200;-73
2022/11/16 11:58:30;;;;;;;0.80;0.80;;;;;;;12.69;100.00;99290.75;4932889;29;20735;-74
2022/11/16 12:01:15;;;;;;;0.70;0.70;;;;;;;12.70;100.00;99282.94;4932799;29;20577;-73
2022/11/16 12:04:04;;;;;;;0.95;0.95;;;;;;;12.58;100.00;99279.56;4932534;29;20235;-72
2022/11/16 12:06:38;;;;;;;0.65;0.65;;;;;;;12.63;100.00;99277.78;4913970;29;20219;-73
2022/11/16 12:09:20;;;;;;;0.95;0.77;;;;;;;12.49;100.00;99271.78;4913727;29;20693;-74
2022/11/16 12:12:11;;;;;;;1.05;1.05;;;;;;;12.53;100.00;99270.91;4913532;29;20310;-73
2022/11/16 12:14:55;;;;;;;0.88;0.88;;;;;;;12.48;100.00;99267.47;4913628;29;20231;-75
2022/11/16 12:17:32;;;;;;;0.73;0.73;;;;;;;12.55;100.00;99258.78;4913571;29;20242;-76
2022/11/16 12:20:28;;;;;;;3.50;1.15;;;;;;;12.48;100.00;99259.69;4913442;29;20203;-74
2022/11/16 12:23:15;;;;;;;0.85;0.85;;;;;;;12.46;100.00;99251.00;4875912;29;20741;-73
2022/11/16 12:25:50;;;;;;;0.70;0.70;;;;;;;12.37;100.00;99244.16;4875854;29;20687;-74
2022/11/16 12:28:35;;;;;;;0.77;0.77;;;;;;;12.01;100.00;99179.38;4875790;29;20757;-73
2022/11/16 12:31:23;;;;;;;0.80;0.80;;;;;;;12.41;100.00;99238.06;4875591;29;20206;-74
2022/11/16 12:34:02;;;;;;;0.88;0.88;;;;;;;12.32;100.00;99236.38;4875110;29;20201;-75
2022/11/16 12:36:40;;;;;;;0.50;0.50;;;;;;;12.25;100.00;99241.59;4875698;29;20201;-74
2022/11/16 12:39:22;;;;;;;0.50;0.50;;;;;;;12.19;100.00;99229.53;4875667;29;20209;-74
2022/11/16 12:42:14;;;;;;;0.70;0.70;;;;;;;12.30;100.00;99235.53;4875658;29;20206;-74
2022/11/16 12:45:21;;;;;;;0.70;0.70;;;;;;;12.42;100.00;99225.03;4890863;29;20205;-74
2022/11/16 12:48:11;;;;;;;0.70;0.70;;;;;;;12.29;100.00;99228.59;4894448;29;20240;-73
2022/11/16 12:50:51;;;;;;;0.50;0.50;;;;;;;12.24;100.00;99225.13;4894104;29;20224;-74
2022/11/16 12:53:53;;;;;;;0.50;0.50;;;;;;;12.35;100.00;99223.34;4862803;29;20224;-74
2022/11/16 12:56:30;;;;;;;0.60;0.60;;;;;;;12.25;100.00;99197.41;4838376;29;20207;-73
2022/11/16 12:59:16;;;;;;;0.70;0.70;;;;;;;12.21;100.00;99173.19;4847458;29;20712;-74
2022/11/16 13:01:53;;;;;;;0.60;0.60;;;;;;;12.21;100.00;99169.72;4893471;29;20205;-73
2022/11/16 13:04:24;;;;;;;0.70;0.70;;;;;;;12.46;100.00;99214.63;4893680;29;20688;-73
2022/11/16 13:07:00;;;;;;;0.70;0.70;;;;;;;12.42;100.00;99192.97;4847492;29;20209;-75
2022/11/16 13:09:32;;;;;;;0.50;0.50;;;;;;;12.37;100.00;99171.38;4894043;29;20200;-73
2022/11/16 13:12:05;;;;;;;0.90;0.90;;;;;;;12.67;100.00;99204.06;4894126;29;20256;-76
2022/11/16 13:14:37;;;;;;;0.80;0.80;;;;;;;12.53;100.00;99179.91;4893699;29;20283;-75
2022/11/16 13:17:05;;;;;;;1.08;1.08;;;;;;;12.47;100.00;99205.94;4847043;29;20416;-74
2022/11/16 13:19:33;;;;;;;0.95;0.95;;;;;;;12.26;100.00;99191.38;4893474;29;20201;-74
2022/11/16 13:22:07;;;;;;;0.57;0.57;;;;;;;12.33;100.00;99201.72;4893463;29;20212;-75
2022/11/16 13:24:46;;;;;;;0.60;0.60;;;;;;;12.15;100.00;99173.25;4893631;29;20212;-75
2022/11/16 13:27:23;;;;;;;0.73;0.73;;;;;;;12.27;100.00;99193.94;4893404;29;20212;-74
2022/11/16 13:29:57;;;;;;;0.80;0.80;;;;;;;12.36;100.00;99203.41;4893458;29;20219;-73
2022/11/16 13:32:33;;;;;;;0.52;0.52;;;;;;;12.40;100.00;99194.72;4902627;28;20697;-74
2022/11/16 13:35:04;;;;;;;1.30;1.30;;;;;;;12.43;100.00;99203.38;4969530;28;20206;-74
2022/11/16 13:37:47;;;;;;;1.50;1.50;;;;;;;12.47;100.00;99192.94;4969452;28;20233;-74
2022/11/16 13:40:28;;;;;;;0.90;0.90;;;;;;;12.22;100.00;99168.84;4969561;28;20220;-74
2022/11/16 13:43:16;;;;;;;0.70;0.70;;;;;;;12.34;100.00;99182.63;4969106;28;20194;-73
2022/11/16 13:45:51;;;;;;;0.70;0.70;;;;;;;12.24;100.00;99173.16;4969321;28;20213;-73
2022/11/16 13:48:20;;;;;;;0.70;0.70;;;;;;;12.17;100.00;99160.22;4969497;28;20229;-74
2022/11/16 13:50:50;;;;;;;0.50;0.50;;;;;;;12.21;100.00;99161.94;4969370;28;20198;-73
2022/11/16 13:53:25;;;;;;;0.60;0.60;;;;;;;12.13;100.00;99171.53;4969420;28;20202;-73
2022/11/16 13:55:57;;;;;;;0.60;0.60;;;;;;;12.09;100.00;99160.28;4969330;28;20694;-71
2022/11/16 13:58:26;;;;;;;0.60;0.60;;;;;;;11.79;100.00;99113.69;4969521;28;20233;-73
2022/11/16 14:01:06;;;;;;;0.60;0.60;;;;;;;12.03;100.00;99149.03;4965754;28;20206;-74
2022/11/16 14:03:40;;;;;;;0.60;0.60;;;;;;;11.96;100.00;99144.75;4969016;28;20407;-74
2022/11/16 14:06:44;;;;;;;0.60;0.60;;;;;;;11.92;100.00;99131.78;4969315;28;20704;-74
2022/11/16 14:09:47;;;;;;;2.38;0.93;;;;;;;11.81;100.00;99130.13;4969259;28;20204;-74
2022/11/16 14:12:51;;;;;;;0.70;0.70;;;;;;;11.79;100.00;99126.69;4969139;28;20640;-74
2022/11/16 14:15:20;;;;;;;0.80;0.80;;;;;;;11.73;100.00;99126.72;4969297;28;20202;-73
2022/11/16 14:17:57;;;;;;;0.60;0.60;;;;;;;11.61;100.00;99096.44;4969345;28;20723;-75
2022/11/16 14:20:39;;;;;;;0.98;0.98;;;;;;;11.65;100.00;99112.88;4969155;28;20201;-74
2022/11/16 14:23:23;;;;;;;0.60;0.60;;;;;;;11.36;100.00;99040.34;4969069;28;20213;-73
2022/11/16 14:25:59;;;;;;;0.52;0.52;;;;;;;11.71;100.00;99108.53;4969242;28;20778;-73
2022/11/16 14:28:59;;;;;;;0.63;0.63;;;;;;;11.92;100.00;99098.03;4969044;28;20701;-75
2022/11/16 14:31:30;;;;;;;1.67;1.58;;;;;;;11.68;100.00;99079.09;4911681;29;20197;-73
2022/11/16 14:33:59;;;;;;;0.57;0.57;;;;;;;11.78;100.00;99106.75;4911782;29;20667;-74
2022/11/16 14:36:37;;;;;;;0.50;0.50;;;;;;;11.75;100.00;99096.41;4942179;28;20991;-74
2022/11/16 14:39:34;;;;;;;1.00;1.00;;;;;;;11.66;100.00;99096.44;4988144;28;20364;-74
2022/11/16 14:42:03;;;;;;;0.70;0.70;;;;;;;11.61;100.00;99099.03;4981168;28;20203;-74
2022/11/16 14:44:36;;;;;;;1.02;1.02;;;;;;;11.60;100.00;99093.84;4946387;28;20205;-75
2022/11/16 14:47:04;;;;;;;0.90;0.90;;;;;;;11.56;100.00;99097.34;4988313;28;20237;-75
2022/11/16 14:49:34;;;;;;;0.90;0.90;;;;;;;11.51;100.00;99092.19;4988015;28;20202;-74
2022/11/16 14:52:04;;;;;;;0.70;0.70;;;;;;;11.52;100.00;99086.13;4975055;28;20202;-74
2022/11/16 14:54:37;;;;;;;0.50;0.50;;;;;;;11.54;100.00;99086.09;4987966;28;20702;-75
2022/11/16 14:57:06;;;;;;;0.60;0.60;;;;;;;11.42;100.00;99085.28;4977536;28;20684;-75
2022/11/16 14:59:34;;;;;;;0.70;0.70;;;;;;;11.33;100.00;99079.28;4940163;28;20198;-75
2022/11/16 15:02:12;;;;;;;1.73;1.73;;;;;;;11.26;100.00;99088.81;4988735;28;20237;-75
2022/11/16 15:04:39;;;;;;;2.37;1.30;;;;;;;11.23;100.00;99086.25;4991796;28;20204;-75
2022/11/16 15:07:07;;;;;;;1.17;1.17;;;;;;;11.13;100.00;99081.94;4993830;28;20243;-76
2022/11/16 15:09:37;;;;;;;4.28;1.88;;;;;;;11.17;100.00;99098.34;5052741;28;20211;-75
2022/11/16 15:14:54;;;;;;;0.77;0.77;;;;;;;11.17;100.00;99096.63;5053210;28;20691;-75
2022/11/16 15:17:23;;;;;;;1.42;1.42;;;;;;;11.09;100.00;99093.22;5043795;28;20330;-74
2022/11/16 15:19:56;;;;;;;0.60;0.60;;;;;;;11.07;100.00;99086.28;5053396;28;20207;-76
2022/11/16 15:22:25;;;;;;;0.85;0.85;;;;;;;11.12;100.00;99087.13;5051886;28;20203;-74
2022/11/16 15:24:56;;;;;;;0.70;0.70;;;;;;;11.09;100.00;99084.56;5053727;28;20625;-73
2022/11/16 15:27:36;;;;;;;0.55;0.55;;;;;;;10.88;100.00;99064.72;5044246;28;20217;-73
2022/11/16 15:30:14;;;;;;;0.68;0.68;;;;;;;10.93;100.00;99083.72;5052322;28;20199;-73
2022/11/16 15:32:43;;;;;;;0.70;0.70;;;;;;;10.86;100.00;99077.69;5048046;28;20195;-72
2022/11/16 15:35:18;;;;;;;1.83;1.73;;;;;;;10.90;100.00;99084.59;5053296;28;20200;-73
2022/11/16 15:37:45;;;;;;;1.92;1.90;;;;;;;10.92;100.00;99087.19;5051846;28;20320;-73
2022/11/16 15:40:12;;;;;;;1.38;1.30;;;;;;;10.95;100.00;99087.19;5052445;28;20207;-74
2022/11/16 15:42:41;;;;;;;0.90;0.90;;;;;;;11.01;100.00;99079.41;5051535;28;20224;-73
2022/11/16 15:45:18;;;;;;;0.90;0.90;;;;;;;10.87;100.00;99063.00;5015242;28;20198;-74
2022/11/16 15:47:46;;;;;;;1.33;1.33;;;;;;;10.85;100.00;99065.59;5052377;28;20283;-74
2022/11/16 15:50:16;;;;;;;5.30;1.90;;;;;;;10.78;100.00;99057.84;5016651;28;20203;-74
2022/11/16 15:52:45;;;;;;;1.00;1.00;;;;;;;10.75;100.00;99053.53;5052416;28;20286;-73
2022/11/16 15:55:33;;;;;;;0.80;0.80;;;;;;;10.85;100.00;99072.50;5052365;28;20199;-72
2022/11/16 15:58:06;;;;;;;0.70;0.70;;;;;;;10.86;100.00;99077.69;5051945;28;20219;-73
2022/11/16 16:00:36;;;;;;;0.80;0.80;;;;;;;10.89;100.00;99071.63;5051809;28;20211;-73
2022/11/16 16:03:17;;;;;;;7.43;2.90;;;;;;;10.76;100.00;99050.06;5025276;28;20323;-72
2022/11/16 16:05:44;;;;;;;5.53;3.10;;;;;;;10.76;100.00;99064.75;5052503;28;20238;-73
2022/11/16 16:08:26;;;;;;;1.75;1.75;;;;;;;10.37;100.00;98957.72;5050682;28;20482;-73
2022/11/16 16:11:06;;;;;;;3.50;1.83;;;;;;;10.96;100.00;99055.19;5051335;28;20196;-75
2022/11/16 16:13:34;;;;;;;1.37;1.37;;;;;;;10.81;100.00;99047.44;5042012;28;20203;-75
2022/11/16 16:16:21;;;;;;;1.63;1.53;;;;;;;10.90;100.00;99052.63;5050189;28;20203;-75
2022/11/16 16:18:49;;;;;;;1.35;1.35;;;;;;;10.86;100.00;99056.97;5051380;28;20231;-75
2022/11/16 16:21:16;;;;;;;4.00;1.20;;;;;;;11.08;100.00;99021.44;5051130;28;20443;-74
2022/11/16 16:23:44;;;;;;;0.50;0.50;;;;;;;10.76;100.00;98951.56;5051637;28;20273;-75
2022/11/16 16:26:11;;;;;;;1.40;1.38;;;;;;;11.15;100.00;99051.69;5050941;28;20231;-75
2022/11/16 16:28:38;;;;;;;1.03;0.97;;;;;;;11.09;100.00;99061.22;5051475;28;20229;-75
2022/11/16 16:31:05;;;;;;;1.23;1.23;;;;;;;10.97;100.00;99049.16;5050873;28;20246;-76
2022/11/16 16:33:33;;;;;;;1.10;1.10;;;;;;;10.85;100.00;99033.59;5032967;28;20227;-74
2022/11/16 16:36:00;;;;;;;1.37;1.37;;;;;;;10.87;100.00;99058.69;5049910;28;20203;-74
2022/11/16 16:38:27;;;;;;;1.23;1.23;;;;;;;10.72;100.00;99047.47;5010565;28;20372;-75
2022/11/16 16:41:00;;;;;;;0.80;0.80;;;;;;;10.50;100.00;99044.06;5016078;28;20196;-74
2022/11/16 16:43:27;;;;;;;2.23;1.80;;;;;;;10.19;100.00;99006.97;5032034;28;20271;-74